sensor_id;sensor_type;location;lat;lon;timestamp;pressure;altitude;pressure_sealevel;temperature;humidity
58785;BME280;44557;51.862;19.378;2022-09-29T00:01:00;97699.27;;;8.75;82.31
58785;BME280;44557;51.862;19.378;2022-09-29T00:02:06;97701.77;;;8.68;82.29
58785;BME280;44557;51.862;19.378;2022-09-29T00:03:07;97698.89;;;8.70;82.04
58785;BME280;44557;51.862;19.378;2022-09-29T00:04:10;97700.27;;;8.68;82.13
58785;BME280;44557;51.862;19.378;2022-09-29T00:05:11;97704.17;;;8.73;81.77
58785;BME280;44557;51.862;19.378;2022-09-29T00:06:16;97704.90;;;8.73;82.01
58785;BME280;44557;51.862;19.378;2022-09-29T00:07:18;97704.25;;;8.72;82.12
58785;BME280;44557;51.862;19.378;2022-09-29T00:08:22;97707.44;;;8.69;81.68
58785;BME280;44557;51.862;19.378;2022-09-29T00:09:23;97705.85;;;8.69;81.63
58785;BME280;44557;51.862;19.378;2022-09-29T00:10:25;97709.40;;;8.63;81.98
58785;BME280;44557;51.862;19.378;2022-09-29T00:11:26;97706.13;;;8.64;81.87
58785;BME280;44557;51.862;19.378;2022-09-29T00:12:28;97709.39;;;8.62;81.67
58785;BME280;44557;51.862;19.378;2022-09-29T00:13:29;97705.73;;;8.53;82.18
58785;BME280;44557;51.862;19.378;2022-09-29T00:14:31;97708.73;;;8.53;82.35
58785;BME280;44557;51.862;19.378;2022-09-29T00:15:32;97706.42;;;8.57;82.17
58785;BME280;44557;51.862;19.378;2022-09-29T00:16:34;97706.45;;;8.59;82.03
58785;BME280;44557;51.862;19.378;2022-09-29T00:17:35;97708.09;;;8.65;81.95
58785;BME280;44557;51.862;19.378;2022-09-29T00:18:37;97704.71;;;8.59;81.91
58785;BME280;44557;51.862;19.378;2022-09-29T00:19:39;97708.52;;;8.61;82.18
58785;BME280;44557;51.862;19.378;2022-09-29T00:20:40;97705.86;;;8.63;82.26
58785;BME280;44557;51.862;19.378;2022-09-29T00:21:42;97706.98;;;8.59;82.24
58785;BME280;44557;51.862;19.378;2022-09-29T00:22:44;97705.73;;;8.65;82.09
58785;BME280;44557;51.862;19.378;2022-09-29T00:23:49;97703.45;;;8.58;81.92
58785;BME280;44557;51.862;19.378;2022-09-29T00:24:51;97707.16;;;8.60;82.10
58785;BME280;44557;51.862;19.378;2022-09-29T00:27:04;97704.88;;;8.53;82.18
58785;BME280;44557;51.862;19.378;2022-09-29T00:28:06;97705.02;;;8.64;82.27
58785;BME280;44557;51.862;19.378;2022-09-29T00:29:09;97707.88;;;8.60;82.11
58785;BME280;44557;51.862;19.378;2022-09-29T00:30:11;97711.70;;;8.72;81.91
58785;BME280;44557;51.862;19.378;2022-09-29T00:31:13;97712.98;;;8.73;81.70
58785;BME280;44557;51.862;19.378;2022-09-29T00:32:15;97711.89;;;8.67;81.85
58785;BME280;44557;51.862;19.378;2022-09-29T00:33:16;97718.34;;;8.56;82.29
58785;BME280;44557;51.862;19.378;2022-09-29T00:34:18;97713.48;;;8.52;82.30
58785;BME280;44557;51.862;19.378;2022-09-29T00:35:19;97714.86;;;8.54;82.40
58785;BME280;44557;51.862;19.378;2022-09-29T00:36:22;97716.30;;;8.57;82.32
58785;BME280;44557;51.862;19.378;2022-09-29T00:37:23;97720.09;;;8.71;82.08
58785;BME280;44557;51.862;19.378;2022-09-29T00:38:26;97721.13;;;8.73;81.95
58785;BME280;44557;51.862;19.378;2022-09-29T00:39:28;97719.79;;;8.72;81.89
58785;BME280;44557;51.862;19.378;2022-09-29T00:40:29;97720.33;;;8.78;81.80
58785;BME280;44557;51.862;19.378;2022-09-29T00:41:33;97721.66;;;8.78;81.67
58785;BME280;44557;51.862;19.378;2022-09-29T00:42:35;97724.17;;;8.72;81.56
58785;BME280;44557;51.862;19.378;2022-09-29T00:43:59;97726.31;;;8.74;81.71
58785;BME280;44557;51.862;19.378;2022-09-29T00:45:05;97728.92;;;8.70;81.89
58785;BME280;44557;51.862;19.378;2022-09-29T00:46:13;97726.88;;;8.67;82.19
58785;BME280;44557;51.862;19.378;2022-09-29T00:47:17;97726.66;;;8.64;82.03
58785;BME280;44557;51.862;19.378;2022-09-29T00:48:27;97728.72;;;8.58;82.17
58785;BME280;44557;51.862;19.378;2022-09-29T00:50:45;97733.92;;;8.61;82.06
58785;BME280;44557;51.862;19.378;2022-09-29T00:52:00;97733.91;;;8.60;82.50
58785;BME280;44557;51.862;19.378;2022-09-29T00:53:02;97736.45;;;8.63;82.55
58785;BME280;44557;51.862;19.378;2022-09-29T00:54:12;97740.08;;;8.69;82.65
58785;BME280;44557;51.862;19.378;2022-09-29T00:55:22;97740.21;;;8.75;81.90
58785;BME280;44557;51.862;19.378;2022-09-29T00:56:25;97740.21;;;8.76;82.18
58785;BME280;44557;51.862;19.378;2022-09-29T00:57:31;97742.52;;;8.72;81.99
58785;BME280;44557;51.862;19.378;2022-09-29T00:58:38;97744.14;;;8.76;82.03
58785;BME280;44557;51.862;19.378;2022-09-29T00:59:45;97742.19;;;8.76;81.84
58785;BME280;44557;51.862;19.378;2022-09-29T01:00:48;97745.71;;;8.70;81.64
58785;BME280;44557;51.862;19.378;2022-09-29T01:01:51;97744.52;;;8.56;82.08
58785;BME280;44557;51.862;19.378;2022-09-29T01:03:04;97744.18;;;8.54;82.52
58785;BME280;44557;51.862;19.378;2022-09-29T01:04:11;97744.53;;;8.57;82.55
58785;BME280;44557;51.862;19.378;2022-09-29T01:05:48;97747.55;;;8.53;82.90
58785;BME280;44557;51.862;19.378;2022-09-29T01:06:54;97751.70;;;8.65;82.30
58785;BME280;44557;51.862;19.378;2022-09-29T01:08:01;97752.69;;;8.63;82.25
58785;BME280;44557;51.862;19.378;2022-09-29T01:09:10;97755.06;;;8.59;82.43
58785;BME280;44557;51.862;19.378;2022-09-29T01:10:14;97754.70;;;8.60;82.45
58785;BME280;44557;51.862;19.378;2022-09-29T01:11:19;97756.52;;;8.75;81.75
58785;BME280;44557;51.862;19.378;2022-09-29T01:12:22;97760.56;;;8.77;81.58
58785;BME280;44557;51.862;19.378;2022-09-29T01:13:24;97761.85;;;8.68;81.95
58785;BME280;44557;51.862;19.378;2022-09-29T01:14:26;97758.20;;;8.53;82.31
58785;BME280;44557;51.862;19.378;2022-09-29T01:15:29;97757.05;;;8.50;82.71
58785;BME280;44557;51.862;19.378;2022-09-29T01:16:33;97759.99;;;8.52;82.69
58785;BME280;44557;51.862;19.378;2022-09-29T01:17:35;97760.88;;;8.54;82.41
58785;BME280;44557;51.862;19.378;2022-09-29T01:18:36;97758.84;;;8.60;82.40
58785;BME280;44557;51.862;19.378;2022-09-29T01:21:00;97763.86;;;8.66;82.17
58785;BME280;44557;51.862;19.378;2022-09-29T01:23:49;97765.29;;;8.61;82.12
58785;BME280;44557;51.862;19.378;2022-09-29T01:28:58;97770.56;;;8.46;83.06
58785;BME280;44557;51.862;19.378;2022-09-29T01:35:11;97765.91;;;8.44;83.12
58785;BME280;44557;51.862;19.378;2022-09-29T01:36:23;97766.50;;;8.52;83.01
58785;BME280;44557;51.862;19.378;2022-09-29T01:37:44;97768.25;;;8.49;83.06
58785;BME280;44557;51.862;19.378;2022-09-29T01:40:17;97776.14;;;8.41;83.11
58785;BME280;44557;51.862;19.378;2022-09-29T01:41:40;97776.17;;;8.48;82.59
58785;BME280;44557;51.862;19.378;2022-09-29T01:43:06;97779.20;;;8.41;83.01
58785;BME280;44557;51.862;19.378;2022-09-29T01:44:34;97773.17;;;8.42;82.98
58785;BME280;44557;51.862;19.378;2022-09-29T01:45:43;97770.84;;;8.43;82.67
58785;BME280;44557;51.862;19.378;2022-09-29T01:48:17;97769.64;;;8.46;82.68
58785;BME280;44557;51.862;19.378;2022-09-29T01:49:22;97770.70;;;8.49;82.60
58785;BME280;44557;51.862;19.378;2022-09-29T01:50:32;97771.36;;;8.53;82.59
58785;BME280;44557;51.862;19.378;2022-09-29T01:53:22;97769.95;;;8.52;82.09
58785;BME280;44557;51.862;19.378;2022-09-29T01:54:34;97772.93;;;8.53;82.43
58785;BME280;44557;51.862;19.378;2022-09-29T01:55:41;97774.09;;;8.51;82.25
58785;BME280;44557;51.862;19.378;2022-09-29T01:56:57;97770.22;;;8.49;82.41
58785;BME280;44557;51.862;19.378;2022-09-29T01:58:03;97771.88;;;8.44;82.32
58785;BME280;44557;51.862;19.378;2022-09-29T01:59:13;97773.88;;;8.41;82.56
58785;BME280;44557;51.862;19.378;2022-09-29T02:00:18;97772.62;;;8.41;82.33
58785;BME280;44557;51.862;19.378;2022-09-29T02:01:23;97776.42;;;8.39;82.76
58785;BME280;44557;51.862;19.378;2022-09-29T02:02:36;97772.98;;;8.39;82.79
58785;BME280;44557;51.862;19.378;2022-09-29T02:04:50;97776.55;;;8.47;82.18
58785;BME280;44557;51.862;19.378;2022-09-29T02:05:58;97777.38;;;8.45;82.37
58785;BME280;44557;51.862;19.378;2022-09-29T02:07:05;97776.47;;;8.59;82.06
58785;BME280;44557;51.862;19.378;2022-09-29T02:08:12;97778.80;;;8.51;82.54
58785;BME280;44557;51.862;19.378;2022-09-29T02:09:21;97781.05;;;8.44;82.28
58785;BME280;44557;51.862;19.378;2022-09-29T02:10:29;97781.45;;;8.51;81.95
58785;BME280;44557;51.862;19.378;2022-09-29T02:11:34;97781.73;;;8.49;82.49
58785;BME280;44557;51.862;19.378;2022-09-29T02:12:37;97784.17;;;8.55;82.25
58785;BME280;44557;51.862;19.378;2022-09-29T02:13:47;97786.08;;;8.46;82.32
58785;BME280;44557;51.862;19.378;2022-09-29T02:14:51;97787.25;;;8.45;82.33
58785;BME280;44557;51.862;19.378;2022-09-29T02:15:55;97791.99;;;8.42;82.75
58785;BME280;44557;51.862;19.378;2022-09-29T02:17:19;97793.27;;;8.44;82.75
58785;BME280;44557;51.862;19.378;2022-09-29T02:18:22;97792.41;;;8.49;82.59
58785;BME280;44557;51.862;19.378;2022-09-29T02:19:26;97793.39;;;8.52;82.63
58785;BME280;44557;51.862;19.378;2022-09-29T02:20:29;97793.55;;;8.52;82.25
58785;BME280;44557;51.862;19.378;2022-09-29T02:21:31;97792.92;;;8.35;83.00
58785;BME280;44557;51.862;19.378;2022-09-29T02:22:34;97792.61;;;8.41;82.56
58785;BME280;44557;51.862;19.378;2022-09-29T02:23:37;97796.51;;;8.39;82.66
58785;BME280;44557;51.862;19.378;2022-09-29T02:24:38;97796.61;;;8.46;82.56
58785;BME280;44557;51.862;19.378;2022-09-29T02:25:40;97795.85;;;8.54;82.14
58785;BME280;44557;51.862;19.378;2022-09-29T02:26:42;97797.60;;;8.44;82.62
58785;BME280;44557;51.862;19.378;2022-09-29T02:27:46;97795.34;;;8.45;82.37
58785;BME280;44557;51.862;19.378;2022-09-29T02:28:48;97796.24;;;8.38;82.54
58785;BME280;44557;51.862;19.378;2022-09-29T02:29:52;97793.07;;;8.40;82.30
58785;BME280;44557;51.862;19.378;2022-09-29T02:30:54;97796.30;;;8.47;82.10
58785;BME280;44557;51.862;19.378;2022-09-29T02:31:56;97794.67;;;8.49;81.82
58785;BME280;44557;51.862;19.378;2022-09-29T02:33:01;97792.73;;;8.39;82.12
58785;BME280;44557;51.862;19.378;2022-09-29T02:34:03;97793.88;;;8.31;82.51
58785;BME280;44557;51.862;19.378;2022-09-29T02:35:10;97791.67;;;8.31;82.55
58785;BME280;44557;51.862;19.378;2022-09-29T02:36:36;97796.33;;;8.38;82.13
58785;BME280;44557;51.862;19.378;2022-09-29T02:40:08;97795.39;;;8.33;82.57
58785;BME280;44557;51.862;19.378;2022-09-29T02:41:15;97802.62;;;8.34;82.25
58785;BME280;44557;51.862;19.378;2022-09-29T02:42:39;97805.52;;;8.34;82.20
58785;BME280;44557;51.862;19.378;2022-09-29T02:46:36;97809.03;;;8.20;82.61
58785;BME280;44557;51.862;19.378;2022-09-29T02:47:57;97816.33;;;8.24;82.66
58785;BME280;44557;51.862;19.378;2022-09-29T02:49:38;97815.67;;;8.23;82.47
58785;BME280;44557;51.862;19.378;2022-09-29T02:51:58;97816.68;;;8.07;83.18
58785;BME280;44557;51.862;19.378;2022-09-29T02:53:29;97817.31;;;8.09;83.28
58785;BME280;44557;51.862;19.378;2022-09-29T02:57:25;97822.39;;;7.98;83.22
58785;BME280;44557;51.862;19.378;2022-09-29T03:00:11;97825.15;;;8.12;83.08
58785;BME280;44557;51.862;19.378;2022-09-29T03:01:14;97830.55;;;8.18;82.72
58785;BME280;44557;51.862;19.378;2022-09-29T03:02:22;97827.46;;;8.20;82.83
58785;BME280;44557;51.862;19.378;2022-09-29T03:03:24;97831.19;;;8.18;82.59
58785;BME280;44557;51.862;19.378;2022-09-29T03:04:26;97824.63;;;8.20;82.71
58785;BME280;44557;51.862;19.378;2022-09-29T03:05:28;97827.43;;;8.23;82.87
58785;BME280;44557;51.862;19.378;2022-09-29T03:06:30;97832.48;;;8.24;82.99
58785;BME280;44557;51.862;19.378;2022-09-29T03:07:31;97831.70;;;8.08;83.48
58785;BME280;44557;51.862;19.378;2022-09-29T03:08:33;97826.83;;;8.06;83.65
58785;BME280;44557;51.862;19.378;2022-09-29T03:09:34;97829.04;;;8.12;83.39
58785;BME280;44557;51.862;19.378;2022-09-29T03:10:36;97823.50;;;8.18;82.97
58785;BME280;44557;51.862;19.378;2022-09-29T03:11:38;97826.34;;;8.14;82.91
58785;BME280;44557;51.862;19.378;2022-09-29T03:12:39;97824.86;;;8.15;83.24
58785;BME280;44557;51.862;19.378;2022-09-29T03:13:41;97824.27;;;8.12;83.36
58785;BME280;44557;51.862;19.378;2022-09-29T03:14:43;97826.67;;;8.11;83.42
58785;BME280;44557;51.862;19.378;2022-09-29T03:15:44;97827.84;;;8.10;83.60
58785;BME280;44557;51.862;19.378;2022-09-29T03:16:46;97827.76;;;8.15;83.25
58785;BME280;44557;51.862;19.378;2022-09-29T03:17:47;97828.02;;;8.21;82.67
58785;BME280;44557;51.862;19.378;2022-09-29T03:18:50;97832.53;;;8.23;82.62
58785;BME280;44557;51.862;19.378;2022-09-29T03:19:52;97831.80;;;8.22;82.64
58785;BME280;44557;51.862;19.378;2022-09-29T03:20:54;97834.91;;;8.20;82.61
58785;BME280;44557;51.862;19.378;2022-09-29T03:21:55;97835.02;;;8.22;82.56
58785;BME280;44557;51.862;19.378;2022-09-29T03:22:57;97834.98;;;8.16;82.75
58785;BME280;44557;51.862;19.378;2022-09-29T03:23:59;97836.34;;;8.21;82.59
58785;BME280;44557;51.862;19.378;2022-09-29T03:25:01;97838.21;;;8.17;82.29
58785;BME280;44557;51.862;19.378;2022-09-29T03:26:03;97842.39;;;8.13;82.40
58785;BME280;44557;51.862;19.378;2022-09-29T03:27:05;97842.52;;;8.16;82.50
58785;BME280;44557;51.862;19.378;2022-09-29T03:28:07;97841.52;;;8.07;82.40
58785;BME280;44557;51.862;19.378;2022-09-29T03:29:08;97843.47;;;8.03;83.01
58785;BME280;44557;51.862;19.378;2022-09-29T03:30:11;97845.88;;;7.96;83.02
58785;BME280;44557;51.862;19.378;2022-09-29T03:31:13;97846.14;;;7.98;83.11
58785;BME280;44557;51.862;19.378;2022-09-29T03:32:15;97848.98;;;7.95;83.22
58785;BME280;44557;51.862;19.378;2022-09-29T03:33:17;97848.37;;;8.01;82.96
58785;BME280;44557;51.862;19.378;2022-09-29T03:34:18;97846.66;;;8.02;82.71
58785;BME280;44557;51.862;19.378;2022-09-29T03:35:20;97848.55;;;8.02;82.62
58785;BME280;44557;51.862;19.378;2022-09-29T03:36:21;97850.14;;;8.07;82.50
58785;BME280;44557;51.862;19.378;2022-09-29T03:37:23;97848.76;;;8.14;81.90
58785;BME280;44557;51.862;19.378;2022-09-29T03:38:25;97847.29;;;8.15;81.69
58785;BME280;44557;51.862;19.378;2022-09-29T03:39:27;97851.31;;;8.12;81.84
58785;BME280;44557;51.862;19.378;2022-09-29T03:40:28;97851.55;;;8.08;82.28
58785;BME280;44557;51.862;19.378;2022-09-29T03:41:30;97853.25;;;8.02;82.35
58785;BME280;44557;51.862;19.378;2022-09-29T03:42:31;97853.96;;;7.93;83.00
58785;BME280;44557;51.862;19.378;2022-09-29T03:43:33;97851.14;;;7.94;82.86
58785;BME280;44557;51.862;19.378;2022-09-29T03:44:34;97852.15;;;7.88;83.21
58785;BME280;44557;51.862;19.378;2022-09-29T03:45:36;97853.02;;;7.80;83.32
58785;BME280;44557;51.862;19.378;2022-09-29T03:46:38;97850.61;;;7.72;83.85
58785;BME280;44557;51.862;19.378;2022-09-29T03:47:39;97851.39;;;7.85;83.47
58785;BME280;44557;51.862;19.378;2022-09-29T03:48:41;97852.83;;;7.87;83.48
58785;BME280;44557;51.862;19.378;2022-09-29T03:49:43;97853.31;;;7.83;83.40
58785;BME280;44557;51.862;19.378;2022-09-29T03:50:45;97851.66;;;7.78;83.73
58785;BME280;44557;51.862;19.378;2022-09-29T03:51:47;97851.85;;;7.71;84.18
58785;BME280;44557;51.862;19.378;2022-09-29T03:52:48;97851.04;;;7.83;83.42
58785;BME280;44557;51.862;19.378;2022-09-29T03:53:50;97849.02;;;7.84;83.62
58785;BME280;44557;51.862;19.378;2022-09-29T03:54:52;97848.85;;;7.88;83.58
58785;BME280;44557;51.862;19.378;2022-09-29T03:55:53;97851.70;;;7.94;83.35
58785;BME280;44557;51.862;19.378;2022-09-29T03:56:55;97852.12;;;7.96;82.97
58785;BME280;44557;51.862;19.378;2022-09-29T03:57:56;97853.11;;;7.94;83.20
58785;BME280;44557;51.862;19.378;2022-09-29T03:58:58;97855.84;;;7.89;83.13
58785;BME280;44557;51.862;19.378;2022-09-29T04:00:00;97855.50;;;7.74;83.42
58785;BME280;44557;51.862;19.378;2022-09-29T04:01:01;97855.02;;;7.79;83.86
58785;BME280;44557;51.862;19.378;2022-09-29T04:02:03;97854.16;;;7.65;83.79
58785;BME280;44557;51.862;19.378;2022-09-29T04:03:05;97851.95;;;7.64;84.51
58785;BME280;44557;51.862;19.378;2022-09-29T04:04:07;97853.91;;;7.77;83.72
58785;BME280;44557;51.862;19.378;2022-09-29T04:05:09;97851.30;;;7.80;83.94
58785;BME280;44557;51.862;19.378;2022-09-29T04:06:11;97849.35;;;7.86;83.88
58785;BME280;44557;51.862;19.378;2022-09-29T04:07:12;97847.15;;;7.80;83.94
58785;BME280;44557;51.862;19.378;2022-09-29T04:08:14;97846.39;;;7.86;83.64
58785;BME280;44557;51.862;19.378;2022-09-29T04:09:16;97851.13;;;7.92;83.40
58785;BME280;44557;51.862;19.378;2022-09-29T04:10:18;97851.05;;;7.93;83.59
58785;BME280;44557;51.862;19.378;2022-09-29T04:11:19;97856.58;;;7.82;83.72
58785;BME280;44557;51.862;19.378;2022-09-29T04:12:21;97856.42;;;7.82;83.88
58785;BME280;44557;51.862;19.378;2022-09-29T04:13:22;97854.14;;;7.95;83.77
58785;BME280;44557;51.862;19.378;2022-09-29T04:14:24;97856.95;;;7.99;83.47
58785;BME280;44557;51.862;19.378;2022-09-29T04:15:25;97860.08;;;7.94;83.54
58785;BME280;44557;51.862;19.378;2022-09-29T04:16:27;97861.02;;;7.94;83.65
58785;BME280;44557;51.862;19.378;2022-09-29T04:17:28;97863.96;;;7.97;83.22
58785;BME280;44557;51.862;19.378;2022-09-29T04:18:30;97867.11;;;7.97;83.30
58785;BME280;44557;51.862;19.378;2022-09-29T04:19:32;97869.48;;;7.94;83.46
58785;BME280;44557;51.862;19.378;2022-09-29T04:20:36;97869.02;;;7.90;83.31
58785;BME280;44557;51.862;19.378;2022-09-29T04:21:38;97873.98;;;7.83;83.77
58785;BME280;44557;51.862;19.378;2022-09-29T04:22:39;97874.95;;;7.76;83.88
58785;BME280;44557;51.862;19.378;2022-09-29T04:23:41;97875.80;;;7.88;84.07
58785;BME280;44557;51.862;19.378;2022-09-29T04:24:43;97873.66;;;7.91;84.03
58785;BME280;44557;51.862;19.378;2022-09-29T04:25:45;97871.91;;;7.99;83.67
58785;BME280;44557;51.862;19.378;2022-09-29T04:26:46;97870.48;;;8.02;83.60
58785;BME280;44557;51.862;19.378;2022-09-29T04:27:48;97867.45;;;8.08;83.41
58785;BME280;44557;51.862;19.378;2022-09-29T04:28:49;97875.40;;;7.97;83.47
58785;BME280;44557;51.862;19.378;2022-09-29T04:29:51;97879.13;;;8.03;83.36
58785;BME280;44557;51.862;19.378;2022-09-29T04:30:52;97882.20;;;8.00;83.48
58785;BME280;44557;51.862;19.378;2022-09-29T04:31:54;97887.11;;;7.94;83.72
58785;BME280;44557;51.862;19.378;2022-09-29T04:32:56;97893.17;;;8.00;83.42
58785;BME280;44557;51.862;19.378;2022-09-29T04:33:57;97895.23;;;7.97;83.12
58785;BME280;44557;51.862;19.378;2022-09-29T04:34:59;97901.87;;;8.01;83.10
58785;BME280;44557;51.862;19.378;2022-09-29T04:36:01;97898.39;;;7.94;83.13
58785;BME280;44557;51.862;19.378;2022-09-29T04:37:02;97899.21;;;7.88;83.42
58785;BME280;44557;51.862;19.378;2022-09-29T04:38:04;97893.67;;;7.85;83.39
58785;BME280;44557;51.862;19.378;2022-09-29T04:39:06;97891.64;;;7.89;83.66
58785;BME280;44557;51.862;19.378;2022-09-29T04:40:08;97891.95;;;7.85;83.91
58785;BME280;44557;51.862;19.378;2022-09-29T04:41:10;97887.55;;;7.85;83.63
58785;BME280;44557;51.862;19.378;2022-09-29T04:42:11;97887.88;;;7.88;83.66
58785;BME280;44557;51.862;19.378;2022-09-29T04:43:13;97889.90;;;7.88;83.77
58785;BME280;44557;51.862;19.378;2022-09-29T04:44:15;97887.83;;;7.95;83.92
58785;BME280;44557;51.862;19.378;2022-09-29T04:45:17;97889.83;;;7.97;83.55
58785;BME280;44557;51.862;19.378;2022-09-29T04:46:18;97892.33;;;8.01;83.88
58785;BME280;44557;51.862;19.378;2022-09-29T04:47:20;97894.69;;;8.06;83.73
58785;BME280;44557;51.862;19.378;2022-09-29T04:48:21;97898.10;;;8.00;83.65
58785;BME280;44557;51.862;19.378;2022-09-29T04:49:23;97897.40;;;7.96;84.00
58785;BME280;44557;51.862;19.378;2022-09-29T04:50:24;97903.83;;;7.93;84.09
58785;BME280;44557;51.862;19.378;2022-09-29T04:51:26;97905.64;;;7.93;83.60
58785;BME280;44557;51.862;19.378;2022-09-29T04:52:27;97906.70;;;7.94;83.74
58785;BME280;44557;51.862;19.378;2022-09-29T04:53:29;97906.37;;;7.85;84.05
58785;BME280;44557;51.862;19.378;2022-09-29T04:54:32;97905.25;;;7.88;83.75
58785;BME280;44557;51.862;19.378;2022-09-29T04:55:33;97906.41;;;7.87;83.92
58785;BME280;44557;51.862;19.378;2022-09-29T04:56:36;97909.05;;;7.99;83.22
58785;BME280;44557;51.862;19.378;2022-09-29T04:57:40;97911.33;;;7.94;83.67
58785;BME280;44557;51.862;19.378;2022-09-29T04:58:42;97913.03;;;7.94;83.25
58785;BME280;44557;51.862;19.378;2022-09-29T04:59:45;97914.94;;;8.00;82.93
58785;BME280;44557;51.862;19.378;2022-09-29T05:00:46;97916.45;;;8.00;82.77
58785;BME280;44557;51.862;19.378;2022-09-29T05:01:48;97917.77;;;8.04;82.32
58785;BME280;44557;51.862;19.378;2022-09-29T05:02:49;97917.83;;;8.04;82.62
58785;BME280;44557;51.862;19.378;2022-09-29T05:03:51;97923.00;;;7.99;82.95
58785;BME280;44557;51.862;19.378;2022-09-29T05:04:52;97925.13;;;8.04;82.41
58785;BME280;44557;51.862;19.378;2022-09-29T05:05:54;97926.94;;;8.09;82.55
58785;BME280;44557;51.862;19.378;2022-09-29T05:06:56;97929.02;;;8.07;82.63
58785;BME280;44557;51.862;19.378;2022-09-29T05:07:57;97929.31;;;8.01;82.76
58785;BME280;44557;51.862;19.378;2022-09-29T05:08:59;97925.94;;;8.02;82.26
58785;BME280;44557;51.862;19.378;2022-09-29T05:10:02;97925.30;;;8.05;82.53
58785;BME280;44557;51.862;19.378;2022-09-29T05:11:05;97922.65;;;7.97;82.46
58785;BME280;44557;51.862;19.378;2022-09-29T05:12:07;97920.17;;;7.86;83.27
58785;BME280;44557;51.862;19.378;2022-09-29T05:13:09;97921.11;;;7.90;83.17
58785;BME280;44557;51.862;19.378;2022-09-29T05:14:11;97920.60;;;7.89;83.25
58785;BME280;44557;51.862;19.378;2022-09-29T05:15:13;97920.25;;;7.86;82.85
58785;BME280;44557;51.862;19.378;2022-09-29T05:16:14;97917.70;;;7.88;83.13
58785;BME280;44557;51.862;19.378;2022-09-29T05:17:16;97918.38;;;7.95;83.18
58785;BME280;44557;51.862;19.378;2022-09-29T05:18:17;97915.58;;;7.78;83.62
58785;BME280;44557;51.862;19.378;2022-09-29T05:19:19;97918.59;;;7.77;83.93
58785;BME280;44557;51.862;19.378;2022-09-29T05:20:20;97919.58;;;7.79;83.36
58785;BME280;44557;51.862;19.378;2022-09-29T05:21:22;97921.20;;;7.82;83.25
58785;BME280;44557;51.862;19.378;2022-09-29T05:22:24;97917.78;;;7.88;83.44
58785;BME280;44557;51.862;19.378;2022-09-29T05:23:27;97918.63;;;7.91;83.07
58785;BME280;44557;51.862;19.378;2022-09-29T05:24:28;97919.92;;;7.94;82.77
58785;BME280;44557;51.862;19.378;2022-09-29T05:25:30;97921.37;;;7.95;82.80
58785;BME280;44557;51.862;19.378;2022-09-29T05:26:32;97923.98;;;7.97;83.11
58785;BME280;44557;51.862;19.378;2022-09-29T05:27:36;97922.81;;;7.97;83.23
58785;BME280;44557;51.862;19.378;2022-09-29T05:28:42;97926.02;;;7.97;83.30
58785;BME280;44557;51.862;19.378;2022-09-29T05:29:44;97923.34;;;8.00;82.92
58785;BME280;44557;51.862;19.378;2022-09-29T05:30:45;97926.17;;;8.05;82.69
58785;BME280;44557;51.862;19.378;2022-09-29T05:31:47;97926.26;;;8.06;82.78
58785;BME280;44557;51.862;19.378;2022-09-29T05:32:48;97931.52;;;8.06;82.66
58785;BME280;44557;51.862;19.378;2022-09-29T05:33:50;97929.23;;;8.06;82.97
58785;BME280;44557;51.862;19.378;2022-09-29T05:34:52;97931.01;;;7.91;83.30
58785;BME280;44557;51.862;19.378;2022-09-29T05:35:54;97930.96;;;7.93;82.95
58785;BME280;44557;51.862;19.378;2022-09-29T05:36:55;97929.99;;;8.00;83.13
58785;BME280;44557;51.862;19.378;2022-09-29T05:37:57;97931.42;;;8.01;82.90
58785;BME280;44557;51.862;19.378;2022-09-29T05:38:58;97933.88;;;8.07;82.46
58785;BME280;44557;51.862;19.378;2022-09-29T05:40:00;97930.57;;;8.11;82.69
58785;BME280;44557;51.862;19.378;2022-09-29T05:41:06;97936.76;;;8.10;82.22
58785;BME280;44557;51.862;19.378;2022-09-29T05:42:10;97938.27;;;8.03;82.51
58785;BME280;44557;51.862;19.378;2022-09-29T05:43:11;97940.02;;;8.04;82.81
58785;BME280;44557;51.862;19.378;2022-09-29T05:44:14;97944.91;;;8.10;82.34
58785;BME280;44557;51.862;19.378;2022-09-29T05:45:16;97946.95;;;8.06;82.55
58785;BME280;44557;51.862;19.378;2022-09-29T05:46:18;97943.76;;;7.95;82.97
58785;BME280;44557;51.862;19.378;2022-09-29T05:47:20;97941.86;;;7.99;82.93
58785;BME280;44557;51.862;19.378;2022-09-29T05:48:24;97943.79;;;8.01;82.76
58785;BME280;44557;51.862;19.378;2022-09-29T05:49:25;97944.05;;;8.02;82.49
58785;BME280;44557;51.862;19.378;2022-09-29T05:50:27;97946.10;;;8.06;82.47
58785;BME280;44557;51.862;19.378;2022-09-29T05:51:29;97945.52;;;8.10;82.88
58785;BME280;44557;51.862;19.378;2022-09-29T05:52:30;97947.72;;;8.10;82.96
58785;BME280;44557;51.862;19.378;2022-09-29T05:53:32;97948.84;;;8.06;82.20
58785;BME280;44557;51.862;19.378;2022-09-29T05:54:33;97950.89;;;8.07;81.74
58785;BME280;44557;51.862;19.378;2022-09-29T05:55:38;97952.72;;;8.01;82.20
58785;BME280;44557;51.862;19.378;2022-09-29T05:56:39;97954.21;;;7.97;82.36
58785;BME280;44557;51.862;19.378;2022-09-29T05:57:41;97954.52;;;8.00;82.90
58785;BME280;44557;51.862;19.378;2022-09-29T05:58:43;97952.23;;;8.00;82.38
58785;BME280;44557;51.862;19.378;2022-09-29T05:59:45;97953.08;;;7.98;82.11
58785;BME280;44557;51.862;19.378;2022-09-29T06:00:46;97949.58;;;8.00;82.32
58785;BME280;44557;51.862;19.378;2022-09-29T06:01:48;97949.33;;;7.99;82.47
58785;BME280;44557;51.862;19.378;2022-09-29T06:02:49;97948.45;;;8.03;82.48
58785;BME280;44557;51.862;19.378;2022-09-29T06:03:55;97951.91;;;8.08;82.13
58785;BME280;44557;51.862;19.378;2022-09-29T06:04:56;97954.32;;;8.11;81.78
58785;BME280;44557;51.862;19.378;2022-09-29T06:06:06;97946.84;;;8.09;82.28
58785;BME280;44557;51.862;19.378;2022-09-29T06:07:08;97950.10;;;8.07;81.88
58785;BME280;44557;51.862;19.378;2022-09-29T06:08:10;97948.39;;;8.07;81.88
58785;BME280;44557;51.862;19.378;2022-09-29T06:09:12;97953.65;;;8.08;82.02
58785;BME280;44557;51.862;19.378;2022-09-29T06:10:14;97957.10;;;8.05;81.59